createdAt,value
2019-03-19T00:00:06.205Z,100.00
2019-03-19T00:02:45.817Z,100.00
2019-03-19T00:05:28.304Z,100.00
2019-03-19T00:08:05.790Z,100.00
2019-03-19T00:10:47.022Z,100.00
2019-03-19T00:13:28.418Z,100.00
2019-03-19T00:16:06.463Z,100.00
2019-03-19T00:18:44.009Z,100.00
2019-03-19T00:21:22.829Z,100.00
2019-03-19T00:23:59.546Z,100.00
2019-03-19T00:26:37.179Z,100.00
2019-03-19T00:29:16.419Z,100.00
2019-03-19T00:31:56.170Z,100.00
2019-03-19T00:34:34.304Z,100.00
2019-03-19T00:37:15.583Z,100.00
2019-03-19T00:39:52.560Z,100.00
2019-03-19T00:42:34.922Z,100.00
2019-03-19T00:45:22.281Z,100.00
2019-03-19T00:48:02.474Z,100.00
2019-03-19T00:50:40.348Z,100.00
2019-03-19T00:53:21.179Z,100.00
2019-03-19T00:56:03.322Z,100.00
2019-03-19T00:58:38.427Z,100.00
2019-03-19T01:01:16.324Z,100.00
2019-03-19T01:03:54.679Z,100.00
2019-03-19T01:06:32.352Z,100.00
2019-03-19T01:09:10.475Z,100.00
2019-03-19T01:11:48.582Z,100.00
2019-03-19T01:14:25.938Z,100.00
2019-03-19T01:17:04.741Z,100.00
2019-03-19T01:19:39.785Z,100.00
2019-03-19T01:22:16.985Z,100.00
2019-03-19T01:24:53.877Z,100.00
2019-03-19T01:27:30.764Z,100.00
2019-03-19T01:30:08.545Z,100.00
2019-03-19T01:32:47.819Z,100.00
2019-03-19T01:35:24.972Z,100.00
2019-03-19T01:38:06.761Z,100.00
2019-03-19T01:40:47.223Z,100.00
2019-03-19T01:43:28.490Z,100.00
2019-03-19T01:46:21.410Z,100.00
2019-03-19T01:49:00.557Z,100.00
2019-03-19T01:51:39.037Z,100.00
2019-03-19T01:54:19.463Z,100.00
2019-03-19T01:56:55.744Z,100.00
2019-03-19T01:59:33.563Z,100.00
2019-03-19T02:02:13.801Z,100.00
2019-03-19T02:04:51.843Z,100.00
2019-03-19T02:07:25.829Z,100.00
2019-03-19T02:10:03.693Z,100.00
2019-03-19T02:12:40.543Z,100.00
2019-03-19T02:15:16.376Z,100.00
2019-03-19T02:17:52.163Z,100.00
2019-03-19T02:20:28.479Z,100.00
2019-03-19T02:23:06.747Z,100.00
2019-03-19T02:25:48.210Z,100.00
2019-03-19T02:28:30.941Z,100.00
2019-03-19T02:31:11.496Z,100.00
2019-03-19T02:33:51.341Z,100.00
2019-03-19T02:36:31.704Z,100.00
2019-03-19T02:39:11.702Z,100.00
2019-03-19T02:41:55.596Z,100.00
2019-03-19T02:44:36.515Z,100.00
2019-03-19T02:47:27.649Z,100.00
2019-03-19T02:50:10.326Z,100.00
2019-03-19T02:52:52.215Z,100.00
2019-03-19T02:55:32.349Z,100.00
2019-03-19T02:58:08.742Z,100.00
2019-03-19T03:00:50.886Z,100.00
2019-03-19T03:03:30.885Z,100.00
2019-03-19T03:06:10.444Z,100.00
2019-03-19T03:08:47.970Z,100.00
2019-03-19T03:11:24.392Z,100.00
2019-03-19T03:14:01.477Z,100.00
2019-03-19T03:16:37.780Z,100.00
2019-03-19T03:19:18.379Z,100.00
2019-03-19T03:21:55.279Z,100.00
2019-03-19T03:24:34.098Z,100.00
2019-03-19T03:27:11.632Z,100.00
2019-03-19T03:29:52.862Z,99.98
2019-03-19T03:32:32.026Z,100.00
2019-03-19T03:35:18.224Z,99.70
2019-03-19T03:38:01.240Z,99.69
2019-03-19T03:40:41.825Z,100.00
2019-03-19T03:43:25.236Z,100.00
2019-03-19T03:46:02.555Z,99.99
2019-03-19T03:48:46.959Z,99.91
2019-03-19T03:51:29.924Z,99.68
2019-03-19T03:54:11.867Z,99.82
2019-03-19T03:57:01.164Z,99.95
2019-03-19T03:59:35.182Z,100.00
2019-03-19T04:02:15.864Z,100.00
2019-03-19T04:04:54.666Z,100.00
2019-03-19T04:07:32.881Z,100.00
2019-03-19T04:10:11.137Z,100.00
2019-03-19T04:12:49.819Z,99.82
2019-03-19T04:15:26.764Z,99.39
2019-03-19T04:18:06.120Z,98.80
2019-03-19T04:20:44.119Z,98.49
2019-03-19T04:23:25.076Z,98.57
2019-03-19T04:26:12.276Z,98.05
2019-03-19T04:28:56.213Z,96.98
2019-03-19T04:31:34.212Z,97.05
2019-03-19T04:34:16.315Z,97.30
2019-03-19T04:36:58.327Z,97.23
2019-03-19T04:39:35.821Z,97.17
2019-03-19T04:42:13.942Z,96.02
2019-03-19T04:44:52.962Z,95.68
2019-03-19T04:47:36.709Z,95.35
2019-03-19T04:50:16.806Z,94.83
2019-03-19T04:52:54.276Z,93.93
2019-03-19T04:55:36.243Z,93.82
2019-03-19T04:58:16.999Z,93.85
2019-03-19T05:00:55.666Z,93.99
2019-03-19T05:03:33.424Z,93.39
2019-03-19T05:06:09.411Z,92.82
2019-03-19T05:08:46.336Z,92.90
2019-03-19T05:11:27.363Z,93.19
2019-03-19T05:14:07.396Z,93.48
2019-03-19T05:16:44.558Z,93.93
2019-03-19T05:19:25.136Z,93.90
2019-03-19T05:22:03.234Z,94.29
2019-03-19T05:24:41.078Z,94.11
2019-03-19T05:27:23.473Z,94.62
2019-03-19T05:30:02.196Z,95.17
2019-03-19T05:32:36.854Z,95.91
2019-03-19T05:35:18.343Z,96.48
2019-03-19T05:37:58.989Z,97.23
2019-03-19T05:40:50.420Z,97.68
2019-03-19T05:43:44.937Z,97.51
2019-03-19T05:46:24.121Z,97.58
2019-03-19T05:49:03.896Z,98.20
2019-03-19T05:51:39.459Z,98.61
2019-03-19T05:54:15.784Z,98.76
2019-03-19T05:56:54.097Z,98.63
2019-03-19T05:59:31.722Z,98.83
2019-03-19T06:02:09.116Z,98.73
2019-03-19T06:04:48.720Z,99.03
2019-03-19T06:07:28.097Z,99.31
2019-03-19T06:10:07.613Z,98.75
2019-03-19T06:12:46.069Z,98.77
2019-03-19T06:15:21.233Z,98.37
2019-03-19T06:17:57.712Z,98.12
2019-03-19T06:20:39.649Z,97.37
2019-03-19T06:23:19.229Z,97.28
2019-03-19T06:25:57.219Z,95.97
2019-03-19T06:28:35.862Z,96.17
2019-03-19T06:31:13.476Z,95.06
2019-03-19T06:33:53.293Z,94.03
2019-03-19T06:36:27.086Z,93.02
2019-03-19T06:39:01.112Z,91.51
2019-03-19T06:41:44.332Z,89.92
2019-03-19T06:44:18.208Z,87.96
2019-03-19T06:46:51.498Z,87.82
2019-03-19T06:49:24.314Z,86.26
2019-03-19T06:51:59.909Z,82.80
2019-03-19T06:54:35.138Z,72.59
2019-03-19T06:57:09.565Z,72.11
2019-03-19T06:59:44.068Z,75.97
2019-03-19T07:02:18.734Z,77.98
2019-03-19T07:04:53.502Z,79.88
2019-03-19T07:07:29.273Z,80.82
2019-03-19T07:10:03.882Z,79.39
2019-03-19T07:12:37.096Z,74.18
2019-03-19T07:15:16.052Z,73.01
2019-03-19T07:17:51.481Z,73.25
2019-03-19T07:20:27.988Z,73.66
2019-03-19T07:23:29.427Z,73.12
2019-03-19T07:26:06.809Z,74.29
2019-03-19T07:28:42.028Z,75.40
2019-03-19T07:31:18.297Z,75.07
2019-03-19T07:33:54.961Z,75.25
2019-03-19T07:36:32.501Z,72.93
2019-03-19T07:39:11.424Z,73.36
2019-03-19T07:41:49.301Z,74.79
2019-03-19T07:44:24.395Z,72.65
2019-03-19T07:47:01.272Z,70.71
2019-03-19T07:49:37.635Z,69.04
2019-03-19T07:52:13.575Z,67.06
2019-03-19T07:54:47.615Z,66.38
2019-03-19T07:57:22.534Z,64.08
2019-03-19T07:59:57.409Z,63.64
2019-03-19T08:02:32.743Z,63.09
2019-03-19T08:05:07.607Z,61.86
2019-03-19T08:07:50.984Z,63.11
2019-03-19T08:10:29.753Z,62.29
2019-03-19T08:13:18.645Z,61.98
2019-03-19T08:16:04.425Z,62.96
2019-03-19T08:18:46.713Z,62.90
2019-03-19T08:21:32.981Z,63.17
2019-03-19T08:24:09.140Z,64.72
2019-03-19T08:26:52.489Z,63.92
2019-03-19T08:29:35.916Z,64.11
2019-03-19T08:32:19.296Z,64.58
2019-03-19T08:35:01.872Z,64.11
2019-03-19T08:37:48.228Z,63.71
2019-03-19T08:40:31.410Z,64.16
2019-03-19T08:43:25.854Z,63.66
2019-03-19T08:46:13.669Z,64.13
2019-03-19T08:49:13.471Z,64.68
2019-03-19T08:51:56.747Z,64.58
2019-03-19T08:54:38.102Z,64.49
2019-03-19T08:57:35.978Z,62.83
2019-03-19T09:03:08.266Z,62.42
2019-03-19T09:05:45.453Z,61.60
2019-03-19T09:08:14.519Z,61.16
2019-03-19T09:10:48.010Z,61.01
2019-03-19T09:13:21.615Z,62.49
2019-03-19T09:16:12.912Z,62.13
2019-03-19T09:18:45.012Z,61.33
2019-03-19T09:21:17.139Z,60.38
2019-03-19T09:23:48.903Z,60.42
2019-03-19T09:26:20.733Z,59.41
2019-03-19T09:28:52.909Z,59.44
2019-03-19T09:31:25.193Z,59.98
2019-03-19T09:33:57.596Z,59.26
2019-03-19T09:36:29.445Z,59.23
2019-03-19T09:39:01.356Z,57.93
2019-03-19T09:41:34.488Z,58.00
2019-03-19T09:44:06.357Z,58.79
2019-03-19T09:46:38.114Z,57.70
2019-03-19T09:49:21.173Z,56.50
2019-03-19T09:51:53.317Z,54.57
2019-03-19T09:54:32.583Z,52.07
2019-03-19T09:57:04.440Z,51.33
2019-03-19T09:59:37.226Z,52.58
2019-03-19T10:02:09.543Z,51.97
2019-03-19T10:04:41.582Z,50.54
2019-03-19T10:07:13.507Z,48.32
2019-03-19T10:09:48.766Z,44.03
2019-03-19T10:12:20.984Z,44.06
2019-03-19T10:14:53.883Z,44.43
2019-03-19T10:17:25.998Z,43.04
2019-03-19T10:19:58.114Z,41.59
2019-03-19T10:22:29.922Z,42.39
2019-03-19T10:25:01.793Z,43.52
2019-03-19T10:27:33.670Z,44.97
2019-03-19T10:30:06.468Z,45.95
2019-03-19T10:32:40.159Z,46.92
2019-03-19T10:35:12.333Z,47.95
2019-03-19T10:37:44.265Z,48.29
2019-03-19T10:40:16.484Z,47.96
2019-03-19T10:42:48.219Z,46.55
2019-03-19T10:45:21.770Z,45.20
2019-03-19T10:48:02.543Z,44.99
2019-03-19T10:50:35.050Z,41.81
2019-03-19T10:53:07.030Z,42.66
2019-03-19T10:55:39.239Z,44.38
2019-03-19T10:58:14.514Z,45.11
2019-03-19T11:00:46.773Z,44.56
2019-03-19T11:03:18.605Z,43.95
2019-03-19T11:05:51.189Z,43.88
2019-03-19T11:08:22.832Z,43.41
2019-03-19T11:10:54.541Z,42.19
2019-03-19T11:13:26.238Z,41.13
2019-03-19T11:15:58.265Z,40.34
2019-03-19T11:18:30.400Z,39.03
2019-03-19T11:21:02.416Z,40.75
2019-03-19T11:23:34.165Z,42.26
2019-03-19T11:26:06.272Z,42.98
2019-03-19T11:28:41.197Z,43.05
2019-03-19T11:31:13.564Z,41.89
2019-03-19T11:33:47.625Z,42.84
2019-03-19T11:36:18.748Z,43.05
2019-03-19T11:38:50.574Z,42.29
2019-03-19T11:41:22.857Z,41.42
2019-03-19T11:43:56.064Z,40.39
2019-03-19T11:46:28.921Z,38.89
2019-03-19T11:49:01.430Z,39.07
2019-03-19T11:51:33.383Z,38.92
2019-03-19T11:54:05.431Z,38.18
2019-03-19T11:56:37.401Z,37.28
2019-03-19T11:59:09.376Z,37.72
2019-03-19T12:01:44.501Z,37.41
2019-03-19T12:04:16.641Z,38.43
2019-03-19T12:06:49.121Z,37.19
2019-03-19T12:09:21.173Z,34.24
2019-03-19T12:11:56.849Z,34.24
2019-03-19T12:14:29.530Z,35.58
2019-03-19T12:17:01.659Z,36.47
2019-03-19T12:19:35.141Z,36.48
2019-03-19T12:22:08.062Z,36.54
2019-03-19T12:24:40.039Z,35.38
2019-03-19T12:27:12.057Z,33.62
2019-03-19T12:29:44.037Z,34.64
2019-03-19T12:32:16.744Z,34.88
2019-03-19T12:34:48.599Z,35.02
2019-03-19T12:37:20.797Z,34.31
2019-03-19T12:39:53.575Z,32.70
2019-03-19T12:42:25.902Z,31.17
2019-03-19T12:44:57.659Z,31.54
2019-03-19T12:47:30.933Z,31.69
2019-03-19T12:50:03.365Z,33.91
2019-03-19T12:52:39.056Z,35.11
2019-03-19T12:55:15.279Z,35.75
2019-03-19T12:57:47.406Z,34.56
2019-03-19T13:00:32.884Z,34.18
2019-03-19T13:02:55.599Z,33.06
2019-03-19T13:05:28.468Z,33.99
2019-03-19T13:08:00.916Z,33.07
2019-03-19T13:10:33.684Z,32.18
2019-03-19T13:13:06.181Z,33.36
2019-03-19T13:15:41.862Z,32.38
2019-03-19T13:18:14.004Z,31.79
2019-03-19T13:20:53.537Z,31.48
2019-03-19T13:23:27.054Z,31.16
2019-03-19T13:26:00.901Z,30.96
2019-03-19T13:28:52.373Z,31.88
2019-03-19T13:31:24.512Z,32.25
2019-03-19T13:33:56.502Z,32.04
2019-03-19T13:36:28.597Z,32.23
2019-03-19T13:39:01.491Z,32.56
2019-03-19T13:41:36.572Z,32.35
2019-03-19T13:44:11.341Z,33.55
2019-03-19T13:46:44.186Z,33.07
2019-03-19T13:49:21.378Z,33.52
2019-03-19T13:51:54.531Z,34.50
2019-03-19T13:54:26.942Z,34.69
2019-03-19T13:56:58.974Z,35.04
2019-03-19T13:59:38.546Z,34.41
2019-03-19T14:02:10.408Z,35.71
2019-03-19T14:04:42.383Z,34.87
2019-03-19T14:07:14.433Z,34.15
2019-03-19T14:12:38.255Z,34.32
2019-03-19T14:15:12.572Z,34.47
2019-03-19T14:17:44.403Z,34.83
2019-03-19T14:20:17.750Z,35.32
2019-03-19T14:22:49.955Z,35.84
2019-03-19T14:25:23.587Z,36.03
2019-03-19T14:27:55.760Z,34.88
2019-03-19T14:30:28.033Z,35.80
2019-03-19T14:33:00.455Z,36.27
2019-03-19T14:35:37.203Z,36.25
2019-03-19T14:38:06.548Z,36.34
2019-03-19T14:40:39.962Z,35.84
2019-03-19T14:43:11.773Z,35.13
2019-03-19T14:45:44.152Z,35.25
2019-03-19T14:48:16.086Z,36.06
2019-03-19T14:50:47.887Z,36.97
2019-03-19T14:53:20.200Z,37.60
2019-03-19T14:55:54.493Z,38.25
2019-03-19T14:58:25.764Z,39.10
2019-03-19T15:00:57.676Z,38.78
2019-03-19T15:03:30.139Z,38.66
2019-03-19T15:06:04.786Z,37.96
2019-03-19T15:08:37.170Z,38.55
2019-03-19T15:11:09.961Z,38.44
2019-03-19T15:13:42.086Z,38.79
2019-03-19T15:16:14.938Z,38.24
2019-03-19T15:18:47.251Z,38.27
2019-03-19T15:21:19.051Z,37.92
2019-03-19T15:23:51.294Z,37.45
2019-03-19T15:26:23.555Z,36.85
2019-03-19T15:28:55.310Z,37.89
2019-03-19T15:31:30.008Z,38.92
2019-03-19T15:34:00.960Z,39.73
2019-03-19T15:36:34.141Z,39.28
2019-03-19T15:39:09.298Z,39.87
2019-03-19T15:41:41.403Z,39.76
2019-03-19T15:44:13.481Z,39.90
2019-03-19T15:46:46.622Z,40.64
2019-03-19T15:49:19.250Z,40.44
2019-03-19T15:51:51.168Z,41.53
2019-03-19T15:54:26.547Z,41.39
2019-03-19T15:56:59.334Z,41.81
2019-03-19T15:59:31.798Z,42.10
2019-03-19T16:02:03.984Z,42.57
2019-03-19T16:04:36.360Z,42.48
2019-03-19T16:07:08.394Z,42.34
2019-03-19T16:09:41.002Z,42.46
2019-03-19T16:12:13.087Z,42.68
2019-03-19T16:14:44.808Z,42.94
2019-03-19T16:17:16.963Z,43.91
2019-03-19T16:19:48.783Z,45.19
2019-03-19T16:22:20.915Z,45.45
2019-03-19T16:24:53.503Z,45.24
2019-03-19T16:27:31.456Z,46.14
2019-03-19T16:30:03.341Z,45.79
2019-03-19T16:32:39.110Z,45.82
2019-03-19T16:35:11.782Z,46.13
2019-03-19T16:37:46.716Z,46.78
2019-03-19T16:40:19.852Z,47.56
2019-03-19T16:43:03.748Z,47.32
2019-03-19T16:45:35.643Z,47.75
2019-03-19T16:48:13.996Z,48.52
2019-03-19T16:50:45.981Z,48.68
2019-03-19T16:53:20.605Z,49.25
2019-03-19T16:55:53.514Z,49.77
2019-03-19T16:58:31.842Z,50.14
2019-03-19T17:01:04.053Z,50.92
2019-03-19T17:03:38.997Z,51.64
2019-03-19T17:06:11.108Z,52.14
2019-03-19T17:08:53.603Z,52.20
2019-03-19T17:11:25.450Z,52.14
2019-03-19T17:14:00.405Z,52.79
2019-03-19T17:16:32.463Z,52.89
2019-03-19T17:19:08.962Z,53.70
2019-03-19T17:21:40.964Z,54.09
2019-03-19T17:24:19.035Z,54.98
2019-03-19T17:26:51.262Z,55.64
2019-03-19T17:29:33.762Z,56.18
2019-03-19T17:32:12.721Z,56.51
2019-03-19T17:34:45.455Z,57.21
2019-03-19T17:37:17.550Z,57.71
2019-03-19T17:39:52.710Z,58.37
2019-03-19T17:42:24.708Z,58.87
2019-03-19T17:45:07.181Z,59.11
2019-03-19T17:47:39.379Z,59.58
2019-03-19T17:50:17.610Z,60.01
2019-03-19T17:52:50.501Z,60.31
2019-03-19T17:55:23.005Z,60.90
2019-03-19T17:57:55.166Z,61.29
2019-03-19T18:00:45.116Z,61.81
2019-03-19T18:03:17.532Z,62.05
2019-03-19T18:05:49.328Z,62.73
2019-03-19T18:08:21.562Z,63.37
2019-03-19T18:10:54.208Z,63.79
2019-03-19T18:13:25.976Z,64.39
2019-03-19T18:16:09.024Z,64.90
2019-03-19T18:18:42.263Z,65.42
2019-03-19T18:21:20.533Z,65.67
2019-03-19T18:23:55.445Z,66.15
2019-03-19T18:26:30.891Z,66.32
2019-03-19T18:29:04.235Z,66.72
2019-03-19T18:31:40.059Z,67.18
2019-03-19T18:34:12.377Z,67.24
2019-03-19T18:36:52.085Z,67.27
2019-03-19T18:39:25.293Z,67.54
2019-03-19T18:42:00.785Z,68.05
2019-03-19T18:44:33.060Z,68.63
2019-03-19T18:47:08.069Z,69.22
2019-03-19T18:49:39.777Z,69.53
2019-03-19T18:52:17.903Z,70.05
2019-03-19T18:54:49.781Z,70.69
2019-03-19T18:57:35.578Z,70.81
2019-03-19T19:00:13.418Z,71.04
2019-03-19T19:02:50.369Z,71.01
2019-03-19T19:05:22.665Z,70.54
2019-03-19T19:08:04.016Z,70.79
2019-03-19T19:10:36.123Z,71.41
2019-03-19T19:13:09.273Z,71.55
2019-03-19T19:15:41.139Z,71.96
2019-03-19T19:18:18.454Z,72.24
2019-03-19T19:20:51.929Z,72.13
2019-03-19T19:23:24.700Z,71.54
2019-03-19T19:25:58.250Z,71.55
2019-03-19T19:28:30.285Z,71.87
2019-03-19T19:31:02.481Z,72.09
2019-03-19T19:33:39.964Z,72.34
2019-03-19T19:36:12.430Z,73.05
2019-03-19T19:38:56.465Z,73.05
2019-03-19T19:41:28.538Z,73.27
2019-03-19T19:44:03.871Z,73.54
2019-03-19T19:46:36.130Z,74.00
2019-03-19T19:49:12.825Z,73.64
2019-03-19T19:51:45.109Z,73.37
2019-03-19T19:54:23.961Z,73.25
2019-03-19T19:56:56.405Z,73.41
2019-03-19T19:59:33.895Z,74.06
2019-03-19T20:02:05.826Z,74.15
2019-03-19T20:04:41.376Z,74.18
2019-03-19T20:07:13.363Z,73.99
2019-03-19T20:09:58.842Z,73.82
2019-03-19T20:12:30.811Z,74.18
2019-03-19T20:15:06.449Z,74.89
2019-03-19T20:17:40.015Z,75.38
2019-03-19T20:20:15.092Z,75.54
2019-03-19T20:22:47.434Z,75.78
2019-03-19T20:25:24.274Z,76.04
2019-03-19T20:27:57.554Z,76.54
2019-03-19T20:30:38.677Z,77.00
2019-03-19T20:33:11.329Z,77.41
2019-03-19T20:35:50.790Z,77.75
2019-03-19T20:38:23.262Z,78.00
2019-03-19T20:40:55.987Z,77.97
2019-03-19T20:43:28.498Z,78.37
2019-03-19T20:46:10.787Z,78.73
2019-03-19T20:48:43.485Z,79.03
2019-03-19T20:51:18.796Z,79.30
2019-03-19T20:53:51.205Z,79.42
2019-03-19T20:56:27.083Z,79.15
2019-03-19T20:58:59.258Z,79.34
2019-03-19T21:01:37.486Z,79.22
2019-03-19T21:04:10.806Z,79.31
2019-03-19T21:06:46.423Z,79.23
2019-03-19T21:09:19.008Z,79.22
2019-03-19T21:11:55.379Z,78.99
2019-03-19T21:14:27.631Z,79.20
2019-03-19T21:17:07.644Z,79.43
2019-03-19T21:19:40.311Z,79.84
2019-03-19T21:22:18.936Z,79.57
2019-03-19T21:24:51.007Z,78.96
2019-03-19T21:27:29.762Z,78.72
2019-03-19T21:30:01.611Z,78.63
2019-03-19T21:32:40.447Z,78.81
2019-03-19T21:35:14.752Z,78.71
2019-03-19T21:37:52.819Z,78.61
2019-03-19T21:40:24.999Z,78.70
2019-03-19T21:43:00.244Z,79.20
2019-03-19T21:45:33.423Z,79.29
2019-03-19T21:48:15.252Z,79.63
2019-03-19T21:50:49.031Z,80.03
2019-03-19T21:53:22.130Z,79.92
2019-03-19T21:55:55.252Z,80.08
2019-03-19T21:58:32.855Z,80.32
2019-03-19T22:01:05.636Z,80.13
2019-03-19T22:03:40.962Z,80.41
2019-03-19T22:06:12.906Z,80.58
2019-03-19T22:08:51.243Z,80.71
2019-03-19T22:11:23.400Z,80.24
2019-03-19T22:14:01.893Z,80.00
2019-03-19T22:16:35.190Z,80.06
2019-03-19T22:19:10.804Z,78.98
2019-03-19T22:21:42.793Z,78.75
2019-03-19T22:24:26.813Z,78.93
2019-03-19T22:26:59.539Z,79.36
2019-03-19T22:29:38.840Z,79.07
2019-03-19T22:32:11.062Z,79.16
2019-03-19T22:34:45.935Z,79.38
2019-03-19T22:37:17.848Z,79.23
2019-03-19T22:39:55.181Z,78.80
2019-03-19T22:42:28.725Z,79.21
2019-03-19T22:45:04.742Z,79.90
2019-03-19T22:47:37.452Z,80.42
2019-03-19T22:50:14.444Z,80.68
2019-03-19T22:52:48.240Z,80.72
2019-03-19T22:55:29.499Z,81.28
2019-03-19T22:58:01.788Z,81.50
2019-03-19T23:00:43.481Z,81.68
2019-03-19T23:03:15.489Z,81.94
2019-03-19T23:05:47.797Z,82.08
2019-03-19T23:08:20.411Z,82.59
2019-03-19T23:10:52.177Z,82.76
2019-03-19T23:13:24.461Z,83.09
2019-03-19T23:15:56.401Z,83.46
2019-03-19T23:18:28.169Z,83.60
2019-03-19T23:20:59.905Z,83.50
2019-03-19T23:23:31.455Z,83.46
2019-03-19T23:26:03.550Z,83.33
2019-03-19T23:28:35.466Z,83.39
2019-03-19T23:31:07.344Z,84.18
2019-03-19T23:33:39.060Z,84.81
2019-03-19T23:36:10.735Z,84.96
2019-03-19T23:38:43.514Z,84.94
2019-03-19T23:41:15.238Z,84.90
2019-03-19T23:43:46.902Z,84.87
2019-03-19T23:46:18.446Z,84.93
2019-03-19T23:48:58.696Z,84.85
2019-03-19T23:51:30.438Z,85.09
2019-03-19T23:54:09.784Z,85.35
2019-03-19T23:56:41.491Z,85.87
2019-03-19T23:59:19.137Z,86.29
